Time;durP1;ratioP1;P1;durP2;ratioP2;P2;SDS_P1;SDS_P2;PMS_P1;PMS_P2;Temp;Humidity;BMP_temperature;BMP_pressure;BME280_temperature;BME280_humidity;BME280_pressure;Samples;Min_cycle;Max_cycle;Signal;HPM_P1;HPM_P2
2022/02/11 00:01:55;;;;;;;4.55;3.37;;;;;;;5.64;89.15;100699.14;1635071;87;25896;-77
2022/02/11 00:04:31;;;;;;;5.60;3.20;;;;;;;5.59;89.03;100704.06;1631819;87;25883;-77
2022/02/11 00:08:59;;;;;;;4.90;3.55;;;;;;;5.56;89.18;100695.06;1635667;87;25995;-77
2022/02/11 00:11:33;;;;;;;5.25;3.35;;;;;;;5.59;88.86;100701.41;1635573;87;27431;-78
2022/02/11 00:14:02;;;;;;;5.10;3.25;;;;;;;5.59;88.91;100703.22;1634493;86;25831;-77
2022/02/11 00:16:28;;;;;;;4.50;3.40;;;;;;;5.58;88.79;100710.87;1635270;87;25893;-77
2022/02/11 00:18:59;;;;;;;5.37;4.60;;;;;;;5.58;88.91;100714.86;1635392;87;25777;-77
2022/02/11 00:21:28;;;;;;;6.08;5.00;;;;;;;5.56;88.71;100718.97;1635517;87;26657;-78
2022/02/11 00:23:57;;;;;;;6.85;5.03;;;;;;;5.54;88.85;100710.84;1634630;87;27480;-78
2022/02/11 00:26:34;;;;;;;9.80;5.22;;;;;;;5.55;89.07;100725.29;1634940;87;25908;-78
2022/02/11 00:34:10;;;;;;;7.50;4.67;;;;;;;5.49;88.93;100736.00;1635390;87;25923;-78
2022/02/11 00:36:46;;;;;;;7.60;4.28;;;;;;;5.47;89.02;100744.63;1635515;87;27628;-77
2022/02/11 00:39:28;;;;;;;;;;;;;;;5.47;89.00;100747.80;1622236;87;25836;-77
2022/02/11 00:53:14;;;;;;;6.53;3.98;;;;;;;5.42;89.21;100747.40;1616573;87;25922;-77
2022/02/11 01:03:31;;;;;;;7.85;5.42;;;;;;;5.39;88.86;100742.37;1665550;85;27557;-77
2022/02/11 01:05:48;;;;;;;8.73;6.00;;;;;;;5.38;88.90;100740.72;1664466;85;26110;-77
2022/02/11 01:08:14;;;;;;;8.70;5.78;;;;;;;5.36;88.60;100735.56;1666324;85;25804;-77
2022/02/11 01:10:41;;;;;;;10.48;5.87;;;;;;;5.35;88.54;100736.54;1666408;85;26531;-77
2022/02/11 01:13:07;;;;;;;8.65;5.37;;;;;;;5.35;88.56;100740.52;1666029;85;25568;-78
2022/02/11 01:15:36;;;;;;;7.75;5.37;;;;;;;5.35;88.41;100747.16;1666028;85;28059;-77
2022/02/11 01:18:04;;;;;;;11.43;6.25;;;;;;;5.33;88.32;100749.13;1665818;85;25826;-77
2022/02/11 01:20:59;;;;;;;7.75;5.40;;;;;;;5.32;88.46;100740.81;1666181;85;26557;-78
2022/02/11 01:26:00;;;;;;;10.53;5.80;;;;;;;5.36;88.51;100750.17;1665879;85;25947;-78
2022/02/11 01:28:36;;;;;;;9.70;6.25;;;;;;;5.33;88.31;100741.16;1663916;85;27488;-77
2022/02/11 01:33:40;;;;;;;9.63;5.45;;;;;;;5.33;88.43;100745.15;1666050;85;26493;-78
2022/02/11 01:42:16;;;;;;;8.18;5.78;;;;;;;5.30;88.36;100753.92;1605768;87;27462;-78
2022/02/11 01:43:59;;;;;;;8.98;5.72;;;;;;;5.29;88.21;100755.73;1630425;87;25435;-77
2022/02/11 01:59:12;;;;;;;7.42;4.45;;;;;;;5.28;88.04;100750.06;1653699;86;26039;-77
2022/02/11 02:23:07;;;;;;;7.17;5.42;;;;;;;5.20;87.14;100751.79;1663094;86;25997;-77
2022/02/11 02:25:34;;;;;;;7.42;5.12;;;;;;;5.18;87.24;100751.95;1661504;86;25807;-77
2022/02/11 02:28:19;;;;;;;12.60;6.28;;;;;;;5.17;87.17;100748.13;1657354;85;26631;-77
2022/02/11 02:58:09;;;;;;;15.40;8.43;;;;;;;4.92;86.73;100747.49;1657965;85;26068;-78
2022/02/11 03:50:06;;;;;;;11.08;7.12;;;;;;;4.85;87.79;100768.95;1583225;88;26291;-78
2022/02/11 03:52:59;;;;;;;13.20;7.40;;;;;;;4.85;87.64;100773.78;1573490;90;25962;-77
2022/02/11 04:08:42;;;;;;;12.78;7.25;;;;;;;4.84;87.31;100768.59;1620888;87;26836;-78
2022/02/11 04:25:24;;;;;;;10.53;6.20;;;;;;;4.77;87.38;100767.53;1622290;87;25443;-77
2022/02/11 04:56:36;;;;;;;8.85;7.37;;;;;;;4.60;87.51;100755.35;1651634;86;25789;-77
2022/02/11 05:01:45;;;;;;;11.38;6.90;;;;;;;4.56;87.34;100761.09;1653099;85;28462;-78
2022/02/11 05:04:11;;;;;;;13.93;7.75;;;;;;;4.52;87.30;100767.18;1644243;86;25855;-77
2022/02/11 05:06:38;;;;;;;11.05;7.28;;;;;;;4.51;87.31;100766.81;1622586;87;26540;-77
2022/02/11 05:09:04;;;;;;;12.10;7.65;;;;;;;4.49;87.26;100769.30;1620421;87;25960;-77
2022/02/11 05:11:30;;;;;;;11.63;7.83;;;;;;;4.47;87.23;100761.97;1654169;85;25783;-77
2022/02/11 05:13:57;;;;;;;15.60;7.85;;;;;;;4.44;87.18;100767.06;1612743;87;28290;-77
2022/02/11 05:16:23;;;;;;;11.55;7.70;;;;;;;4.40;87.17;100764.84;1637348;87;25835;-77
2022/02/11 05:18:49;;;;;;;13.15;7.97;;;;;;;4.38;87.32;100762.34;1636221;87;25945;-78
2022/02/11 05:21:16;;;;;;;14.10;8.28;;;;;;;4.34;87.20;100759.60;1636631;87;25901;-77
2022/02/11 05:23:42;;;;;;;11.75;8.18;;;;;;;4.31;87.18;100757.25;1636147;87;25985;-78
2022/02/11 05:26:08;;;;;;;14.83;8.85;;;;;;;4.28;87.26;100753.55;1636706;87;27488;-77
2022/02/11 05:28:35;;;;;;;14.47;8.73;;;;;;;4.25;87.22;100758.31;1637082;87;25928;-77
2022/02/11 05:31:01;;;;;;;12.53;8.00;;;;;;;4.25;87.32;100763.13;1637007;87;26533;-77
2022/02/11 05:33:29;;;;;;;14.18;8.05;;;;;;;4.27;87.37;100757.20;1636881;87;25937;-77
2022/02/11 05:35:56;;;;;;;12.80;8.38;;;;;;;4.29;87.26;100756.56;1636911;87;25822;-77
2022/02/11 05:38:22;;;;;;;13.80;8.08;;;;;;;4.30;87.30;100761.38;1635858;87;28508;-78
2022/02/11 05:40:48;;;;;;;14.15;9.13;;;;;;;4.32;87.17;100768.19;1634765;87;25888;-77
2022/02/11 05:43:15;;;;;;;12.58;8.93;;;;;;;4.34;87.10;100770.73;1634740;87;26532;-77
2022/02/11 05:45:41;;;;;;;13.85;9.40;;;;;;;4.34;87.01;100764.91;1634390;87;26190;-78
2022/02/11 05:48:07;;;;;;;14.45;10.43;;;;;;;4.35;87.03;100763.09;1634903;87;25820;-78
2022/02/11 05:50:33;;;;;;;14.25;10.00;;;;;;;4.35;86.86;100765.27;1634986;87;27532;-77
2022/02/11 05:53:00;;;;;;;15.03;10.23;;;;;;;4.34;86.90;100768.88;1634208;87;26589;-77
2022/02/11 05:55:26;;;;;;;14.78;10.30;;;;;;;4.37;87.00;100775.72;1634801;87;26571;-77
2022/02/11 05:57:52;;;;;;;17.90;10.50;;;;;;;4.38;86.89;100776.09;1635222;87;25993;-77
2022/02/11 06:00:19;;;;;;;15.32;10.45;;;;;;;4.39;86.78;100781.72;1635460;87;25877;-77
2022/02/11 06:02:45;;;;;;;14.58;10.13;;;;;;;4.39;86.81;100781.72;1635659;87;28299;-78
2022/02/11 06:05:16;;;;;;;16.48;10.75;;;;;;;4.38;86.71;100783.56;1636927;87;26015;-77
2022/02/11 06:07:41;;;;;;;13.30;9.53;;;;;;;4.34;86.81;100782.66;1637250;87;25941;-77
2022/02/11 06:10:08;;;;;;;16.15;10.25;;;;;;;4.31;87.08;100774.49;1637638;87;25798;-78
2022/02/11 06:12:34;;;;;;;18.98;10.35;;;;;;;4.31;87.24;100779.80;1636822;87;25935;-78
2022/02/11 06:15:00;;;;;;;17.50;10.43;;;;;;;4.35;87.50;100773.22;1632546;85;28363;-77
2022/02/11 06:17:26;;;;;;;16.73;10.03;;;;;;;4.36;87.67;100777.53;1632420;87;25933;-77
2022/02/11 06:19:53;;;;;;;17.07;10.10;;;;;;;4.40;87.70;100780.75;1637700;87;26232;-77
2022/02/11 06:22:19;;;;;;;15.75;9.03;;;;;;;4.39;87.45;100782.56;1625872;86;25806;-78
2022/02/11 06:24:47;;;;;;;12.93;9.10;;;;;;;4.38;87.35;100786.70;1637278;87;25989;-78
2022/02/11 06:27:15;;;;;;;16.27;10.63;;;;;;;4.37;87.39;100777.89;1607644;89;27498;-77
2022/02/11 06:29:41;;;;;;;15.58;10.10;;;;;;;4.39;87.51;100781.72;1654955;86;26474;-77
2022/02/11 06:32:08;;;;;;;19.32;10.48;;;;;;;4.40;87.49;100779.43;1637306;86;25795;-78
2022/02/11 06:34:36;;;;;;;10.58;8.13;;;;;;;4.42;87.51;100781.45;1621023;88;26474;-77
2022/02/11 06:37:07;;;;;;;17.05;11.08;;;;;;;4.38;87.31;100783.56;1620909;87;26095;-77
2022/02/11 06:39:34;;;;;;;14.28;9.85;;;;;;;4.38;87.41;100786.21;1619663;88;27501;-78
2022/02/11 06:42:01;;;;;;;17.92;9.55;;;;;;;4.39;87.79;100784.38;1620658;87;25897;-77
2022/02/11 06:44:27;;;;;;;15.25;11.03;;;;;;;4.42;88.02;100798.20;1620936;87;25948;-77
2022/02/11 06:46:53;;;;;;;16.97;11.38;;;;;;;4.46;88.21;100798.74;1621143;88;26288;-77
2022/02/11 06:49:19;;;;;;;17.17;11.28;;;;;;;4.49;88.44;100793.17;1650861;85;25860;-77
2022/02/11 06:51:46;;;;;;;21.00;12.45;;;;;;;4.54;88.57;100805.01;1611581;88;28246;-79
2022/02/11 06:54:12;;;;;;;14.93;8.53;;;;;;;4.56;88.58;100800.39;1618371;88;25817;-77
2022/02/11 06:56:38;;;;;;;10.05;7.80;;;;;;;4.54;88.20;100810.31;1618732;88;25344;-77
2022/02/11 06:59:05;;;;;;;13.80;7.53;;;;;;;4.47;87.87;100805.22;1618399;87;26010;-77
2022/02/11 07:01:31;;;;;;;12.33;8.75;;;;;;;4.37;88.01;100807.06;1618760;88;25757;-77
2022/02/11 07:03:58;;;;;;;15.53;9.63;;;;;;;4.35;88.33;100802.39;1617621;87;28274;-77
2022/02/11 07:06:24;;;;;;;17.57;11.63;;;;;;;4.39;88.81;100802.45;1618101;88;25800;-77
2022/02/11 07:08:51;;;;;;;23.65;14.43;;;;;;;4.40;89.16;100804.14;1617723;88;26145;-78
2022/02/11 07:11:17;;;;;;;26.57;14.38;;;;;;;4.43;89.41;100806.97;1617670;87;25920;-77
2022/02/11 07:13:43;;;;;;;18.80;11.70;;;;;;;4.45;89.67;100804.53;1617130;87;25961;-77
2022/02/11 07:16:10;;;;;;;20.88;11.40;;;;;;;4.43;89.41;100822.41;1617712;87;27466;-77
2022/02/11 07:18:36;;;;;;;20.70;12.70;;;;;;;4.38;89.36;100819.36;1617790;88;26495;-77
2022/02/11 07:21:02;;;;;;;21.82;13.45;;;;;;;4.43;89.78;100816.25;1617692;88;25977;-77
2022/02/11 07:23:29;;;;;;;23.80;13.88;;;;;;;4.45;90.04;100821.77;1617682;87;26547;-77
2022/02/11 07:25:55;;;;;;;24.63;14.98;;;;;;;4.51;90.15;100823.04;1618182;88;25827;-77
2022/02/11 07:28:21;;;;;;;23.05;14.73;;;;;;;4.56;90.32;100818.96;1618517;86;28425;-77
2022/02/11 07:30:50;;;;;;;26.30;14.28;;;;;;;4.66;90.42;100816.30;1618265;88;25938;-77
2022/02/11 07:33:16;;;;;;;22.00;13.98;;;;;;;4.74;90.49;100821.72;1618202;88;26027;-78
2022/02/11 07:35:42;;;;;;;24.52;15.18;;;;;;;4.78;90.43;100820.45;1618106;88;25759;-78
2022/02/11 07:38:08;;;;;;;26.40;17.80;;;;;;;4.84;90.42;100823.00;1618469;87;25814;-77
2022/02/11 07:40:34;;;;;;;29.15;17.30;;;;;;;4.89;90.44;100815.45;1618866;87;27471;-77
2022/02/11 07:43:01;;;;;;;30.00;17.85;;;;;;;4.94;90.56;100813.22;1615996;84;25834;-77
2022/02/11 07:45:30;;;;;;;27.75;19.50;;;;;;;4.99;90.53;100814.92;1618408;87;25820;-78
2022/02/11 07:47:57;;;;;;;26.02;18.20;;;;;;;5.02;90.45;100821.28;1618699;87;26683;-77
2022/02/11 07:50:23;;;;;;;31.27;18.52;;;;;;;5.05;90.53;100817.83;1632483;87;25922;-78
2022/02/11 07:52:49;;;;;;;30.65;20.52;;;;;;;5.11;90.65;100815.91;1620781;87;27490;-78
2022/02/11 07:55:15;;;;;;;39.75;24.20;;;;;;;5.13;90.50;100817.92;1613969;88;25921;-77
2022/02/11 07:57:42;;;;;;;36.40;23.30;;;;;;;5.17;90.74;100812.70;1614612;88;25345;-77
2022/02/11 08:00:10;;;;;;;48.10;31.65;;;;;;;5.22;90.90;100813.06;1614327;88;26199;-76
2022/02/11 08:02:39;;;;;;;36.70;22.10;;;;;;;5.24;90.87;100814.24;1613470;88;25841;-77
2022/02/11 08:05:07;;;;;;;31.82;20.35;;;;;;;5.25;90.81;100811.46;1621453;87;27490;-76
2022/02/11 08:07:34;;;;;;;41.42;28.42;;;;;;;5.29;90.99;100813.31;1621856;87;25921;-76
2022/02/11 08:10:00;;;;;;;31.70;20.62;;;;;;;5.31;91.05;100810.86;1621936;87;25824;-76
2022/02/11 08:12:26;;;;;;;31.85;21.02;;;;;;;5.34;91.09;100809.25;1664996;85;26266;-76
2022/02/11 08:14:53;;;;;;;31.57;20.48;;;;;;;5.40;91.18;100816.63;1664432;86;25289;-77
2022/02/11 08:17:21;;;;;;;30.25;18.82;;;;;;;5.42;91.12;100805.36;1664954;86;27038;-77
2022/02/11 08:19:47;;;;;;;30.15;18.55;;;;;;;5.46;91.09;100809.38;1664794;85;26486;-77
2022/02/11 08:22:15;;;;;;;28.23;18.65;;;;;;;5.48;91.23;100811.88;1665031;86;25928;-78
2022/02/11 08:24:41;;;;;;;29.40;18.48;;;;;;;5.55;91.52;100818.77;1664762;85;26563;-77
2022/02/11 08:27:07;;;;;;;29.50;20.17;;;;;;;5.58;91.50;100819.30;1665270;86;25859;-77
2022/02/11 08:29:35;;;;;;;28.23;18.70;;;;;;;5.60;91.58;100818.68;1664898;85;27531;-77
2022/02/11 08:32:01;;;;;;;28.02;18.35;;;;;;;5.62;91.62;100819.84;1664695;85;26656;-77
2022/02/11 08:34:27;;;;;;;28.98;18.45;;;;;;;5.67;91.68;100821.55;1664238;84;26494;-77
2022/02/11 08:36:53;;;;;;;26.02;17.75;;;;;;;5.69;91.49;100823.08;1665052;85;25908;-77
2022/02/11 08:39:20;;;;;;;28.92;18.37;;;;;;;5.68;91.34;100816.59;1662724;85;25790;-77
2022/02/11 08:41:48;;;;;;;29.87;18.62;;;;;;;5.70;91.56;100819.93;1662809;86;27456;-77
2022/02/11 08:44:14;;;;;;;27.30;18.23;;;;;;;5.72;91.57;100812.64;1658701;84;25850;-77
2022/02/11 08:46:40;;;;;;;28.87;18.30;;;;;;;5.75;91.70;100814.50;1662682;86;25799;-77
2022/02/11 08:49:06;;;;;;;27.10;18.12;;;;;;;5.80;91.64;100822.02;1662582;86;25899;-77
2022/02/11 08:51:33;;;;;;;28.23;17.42;;;;;;;5.83;91.75;100817.26;1662836;86;25944;-78
2022/02/11 08:53:59;;;;;;;23.18;15.00;;;;;;;5.89;91.85;100814.51;1662520;85;27465;-77
2022/02/11 08:56:28;;;;;;;24.92;15.53;;;;;;;5.84;90.49;100812.30;1663345;86;25765;-76
2022/02/11 08:58:53;;;;;;;19.82;14.33;;;;;;;5.79;90.47;100813.23;1663177;85;25913;-77
2022/02/11 09:01:19;;;;;;;22.93;13.85;;;;;;;5.78;90.14;100811.55;1663073;86;26362;-77
2022/02/11 09:03:46;;;;;;;19.40;13.43;;;;;;;5.75;89.98;100807.03;1664188;86;25997;-77
2022/02/11 09:06:12;;;;;;;17.98;11.40;;;;;;;5.73;90.12;100810.34;1665440;86;27502;-77
2022/02/11 09:08:40;;;;;;;17.00;11.65;;;;;;;5.66;89.08;100807.45;1665375;85;25883;-78
2022/02/11 09:11:12;;;;;;;14.65;10.58;;;;;;;5.65;89.55;100811.56;1665390;86;25868;-77
2022/02/11 09:13:38;;;;;;;19.35;11.75;;;;;;;5.61;89.43;100805.72;1665194;85;25778;-77
2022/02/11 09:16:05;;;;;;;21.37;12.73;;;;;;;5.61;89.59;100807.53;1665406;85;26265;-77
2022/02/11 09:18:31;;;;;;;19.17;12.73;;;;;;;5.61;90.07;100810.19;1665437;86;27471;-77
2022/02/11 09:20:58;;;;;;;19.67;11.12;;;;;;;5.63;90.15;100815.70;1665490;86;25975;-77
2022/02/11 09:23:25;;;;;;;16.87;11.45;;;;;;;5.68;90.18;100811.27;1665038;86;25904;-77
2022/02/11 09:25:52;;;;;;;19.92;11.18;;;;;;;5.66;89.81;100811.92;1665378;86;26410;-77
2022/02/11 09:28:19;;;;;;;14.58;10.30;;;;;;;5.62;89.95;100819.84;1664638;86;25872;-77
2022/02/11 09:30:45;;;;;;;19.52;10.23;;;;;;;5.61;90.17;100820.34;1663447;85;27558;-77
2022/02/11 09:33:13;;;;;;;15.58;7.92;;;;;;;5.66;90.06;100818.56;1632943;87;26134;-77
2022/02/11 09:35:39;;;;;;;19.32;8.53;;;;;;;5.68;89.60;100820.09;1633343;87;25730;-77
2022/02/11 09:38:05;;;;;;;17.12;7.97;;;;;;;5.71;89.29;100819.77;1648212;86;25823;-77
2022/02/11 09:40:35;;;;;;;15.15;8.90;;;;;;;5.73;89.28;100822.30;1596054;89;25885;-77
2022/02/11 09:43:01;;;;;;;19.45;9.80;;;;;;;5.69;89.35;100822.27;1600559;86;27491;-77
2022/02/11 09:45:28;;;;;;;17.17;10.35;;;;;;;5.70;89.96;100818.60;1595515;88;43170;-76
2022/02/11 09:47:55;;;;;;;16.77;9.83;;;;;;;5.64;89.14;100816.55;1637094;87;25820;-77
2022/02/11 09:50:22;;;;;;;15.63;8.75;;;;;;;5.56;89.08;100813.81;1619635;88;25819;-77
2022/02/11 09:52:53;;;;;;;19.17;8.10;;;;;;;5.47;89.20;100819.01;1619031;88;25829;-77
2022/02/11 09:55:37;;;;;;;12.93;6.40;;;;;;;5.41;89.35;100819.61;1619249;88;33048;-77
2022/02/11 09:58:16;;;;;;;15.30;6.65;;;;;;;5.36;89.30;100818.39;1619116;88;25774;-77
2022/02/11 10:00:48;;;;;;;15.00;4.67;;;;;;;5.31;89.68;100820.64;1620493;86;26448;-77
2022/02/11 10:03:31;;;;;;;12.88;6.08;;;;;;;5.27;89.37;100821.92;1664893;85;26283;-77
2022/02/11 10:06:02;;;;;;;10.48;6.75;;;;;;;5.20;89.25;100830.97;1665214;86;26080;-77
2022/02/11 10:08:30;;;;;;;;;;;;;;;5.01;89.03;100830.20;1667577;85;28290;-77
2022/02/11 10:11:00;;;;;;;10.15;6.47;;;;;;;4.84;89.91;100834.47;1665307;85;25876;-77
2022/02/11 10:13:34;;;;;;;7.65;5.17;;;;;;;4.65;89.65;100836.69;1665415;86;25931;-77
2022/02/11 10:16:15;;;;;;;4.58;3.72;;;;;;;4.49;89.31;100838.26;1664737;85;25932;-76
2022/02/11 10:18:33;;;;;;;4.40;2.90;;;;;;;4.32;89.14;100841.12;1662671;85;26053;-77
2022/02/11 10:21:06;;;;;;;4.80;3.25;;;;;;;4.19;88.78;100847.19;1665165;86;28091;-77
2022/02/11 10:23:41;;;;;;;4.15;2.67;;;;;;;4.08;88.93;100851.81;1665285;86;25884;-77
2022/02/11 10:26:08;;;;;;;4.67;2.92;;;;;;;4.00;89.26;100845.05;1664416;85;25829;-77
2022/02/11 10:28:39;;;;;;;4.90;3.50;;;;;;;3.95;89.57;100842.81;1641483;87;25923;-77
2022/02/11 10:31:21;;;;;;;9.60;6.78;;;;;;;3.93;89.81;100842.92;1641367;85;25751;-77
2022/02/11 10:33:59;;;;;;;7.22;6.05;;;;;;;3.99;89.91;100838.05;1641352;86;27520;-77
2022/02/11 10:36:36;;;;;;;9.13;8.25;;;;;;;4.01;89.74;100834.78;1640732;86;25933;-76
2022/02/11 10:39:20;;;;;;;8.18;7.37;;;;;;;4.01;89.62;100831.64;1660576;86;25774;-77
2022/02/11 10:41:54;;;;;;;6.15;4.78;;;;;;;4.03;89.88;100833.67;1662897;85;25923;-77
2022/02/11 10:44:25;;;;;;;4.28;3.87;;;;;;;4.08;90.07;100834.58;1656019;84;26485;-77
2022/02/11 10:46:55;;;;;;;6.17;4.30;;;;;;;4.11;90.11;100832.95;1641551;86;32982;-77
2022/02/11 10:49:41;;;;;;;17.27;8.58;;;;;;;4.11;90.07;100835.12;1663526;86;26178;-77
2022/02/11 10:52:21;;;;;;;16.70;8.73;;;;;;;4.11;90.01;100833.80;1663234;85;25834;-77
2022/02/11 10:54:53;;;;;;;25.97;13.65;;;;;;;4.12;90.22;100831.52;1632543;86;25850;-77
2022/02/11 10:57:24;;;;;;;31.90;17.77;;;;;;;4.18;90.56;100823.48;1596013;89;25915;-77
2022/02/11 10:59:51;;;;;;;55.85;27.15;;;;;;;4.25;90.74;100825.44;1596194;89;28367;-77
2022/02/11 11:02:21;;;;;;;43.02;20.20;;;;;;;4.29;90.64;100824.18;1607539;87;25344;-77
2022/02/11 11:04:53;;;;;;;83.37;36.90;;;;;;;4.35;90.63;100824.09;1645039;85;26435;-77
2022/02/11 11:07:28;;;;;;;67.72;32.23;;;;;;;4.38;90.47;100826.47;1663842;85;25779;-77
2022/02/11 11:09:56;;;;;;;52.90;24.30;;;;;;;4.40;90.32;100820.53;1663322;86;25771;-77
2022/02/11 11:12:25;;;;;;;59.53;25.62;;;;;;;4.40;90.16;100813.42;1663437;86;27449;-77
2022/02/11 11:14:55;;;;;;;31.97;14.83;;;;;;;4.42;90.13;100820.75;1663235;86;25808;-77
2022/02/11 11:17:23;;;;;;;36.23;16.23;;;;;;;4.46;90.42;100823.45;1662930;86;25829;-77
2022/02/11 11:19:52;;;;;;;45.05;20.65;;;;;;;4.48;90.27;100816.20;1633532;87;25868;-77
2022/02/11 11:22:28;;;;;;;60.85;25.08;;;;;;;4.52;90.29;100820.23;1621857;87;26662;-76
2022/02/11 11:25:02;;;;;;;41.35;19.48;;;;;;;4.53;90.22;100814.44;1621796;87;28438;-77
2022/02/11 11:27:44;;;;;;;67.53;27.22;;;;;;;4.54;90.18;100816.95;1621853;87;25982;-77
2022/02/11 11:30:27;;;;;;;20.80;11.45;;;;;;;4.55;90.23;100812.00;1622029;88;26543;-77
2022/02/11 11:33:11;;;;;;;21.97;13.13;;;;;;;4.58;89.93;100810.85;1606492;89;25978;-77
2022/02/11 11:35:47;;;;;;;14.20;9.15;;;;;;;4.57;89.82;100814.02;1665150;86;25933;-77
2022/02/11 11:38:19;;;;;;;10.82;6.97;;;;;;;4.58;90.15;100808.20;1664356;85;27455;-77
2022/02/11 11:41:19;;;;;;;17.90;9.95;;;;;;;4.56;89.79;100804.38;1663467;86;25828;-77
2022/02/11 11:43:55;;;;;;;18.85;12.78;;;;;;;4.53;89.95;100809.95;1659296;83;25772;-76
2022/02/11 11:46:28;;;;;;;12.85;9.73;;;;;;;4.53;90.34;100803.32;1663143;86;26233;-77
2022/02/11 11:49:12;;;;;;;13.95;10.78;;;;;;;4.56;90.48;100808.84;1663345;85;26490;-77
2022/02/11 11:51:47;;;;;;;13.58;8.73;;;;;;;4.52;90.06;100810.11;1663312;86;27512;-77
2022/02/11 11:54:22;;;;;;;10.93;7.03;;;;;;;4.52;90.40;100806.13;1662868;86;25853;-77
2022/02/11 11:57:01;;;;;;;12.80;9.30;;;;;;;4.53;90.15;100810.47;1663093;85;25917;-77
2022/02/11 11:59:49;;;;;;;16.37;11.00;;;;;;;4.50;90.25;100805.44;1660414;85;26254;-77
2022/02/11 12:02:21;;;;;;;14.95;10.23;;;;;;;4.50;90.32;100809.41;1672942;85;25753;-77
2022/02/11 12:04:56;;;;;;;15.48;11.48;;;;;;;4.44;90.40;100808.18;1688900;83;28169;-77
2022/02/11 12:07:30;;;;;;;14.33;9.60;;;;;;;4.43;90.69;100810.95;1696188;83;25818;-77
2022/02/11 12:09:59;;;;;;;14.58;9.88;;;;;;;4.43;90.74;100813.61;1696763;83;26019;-77
2022/02/11 12:12:28;;;;;;;17.55;10.35;;;;;;;4.38;90.67;100806.58;1696549;83;25816;-77
2022/02/11 12:14:58;;;;;;;15.53;10.03;;;;;;;4.42;90.94;100815.92;1681338;83;25905;-77
2022/02/11 12:17:26;;;;;;;18.33;9.30;;;;;;;4.45;90.93;100816.95;1667881;85;28453;-77
2022/02/11 12:19:56;;;;;;;14.28;8.95;;;;;;;4.41;90.76;100812.91;1642132;85;26522;-77
2022/02/11 12:22:30;;;;;;;22.32;11.85;;;;;;;4.38;90.67;100811.41;1625846;87;25829;-78
2022/02/11 12:27:50;;;;;;;142.50;66.72;;;;;;;4.35;91.00;100802.87;1633960;86;25487;-78
2022/02/11 12:30:25;;;;;;;244.60;118.15;;;;;;;4.36;91.03;100809.36;1627042;87;27499;-78
2022/02/11 12:32:59;;;;;;;109.87;55.65;;;;;;;4.39;91.37;100802.45;1629460;86;25908;-78
2022/02/11 12:35:31;;;;;;;28.92;17.05;;;;;;;4.44;91.42;100802.87;1629707;86;25872;-77
2022/02/11 12:38:02;;;;;;;18.57;10.90;;;;;;;4.48;91.34;100809.56;1630000;87;25914;-76
2022/02/11 12:40:40;;;;;;;16.75;10.10;;;;;;;4.50;91.28;100805.44;1626097;87;25797;-77
2022/02/11 12:43:09;;;;;;;15.78;9.20;;;;;;;4.52;91.10;100810.11;1626908;84;27650;-77
2022/02/11 12:45:39;;;;;;;18.87;10.85;;;;;;;4.53;91.05;100811.28;1634799;86;35407;-77
2022/02/11 12:48:12;;;;;;;20.08;12.03;;;;;;;4.51;91.09;100811.91;1629555;87;25768;-77
2022/02/11 12:50:44;;;;;;;19.45;11.75;;;;;;;4.50;91.07;100812.06;1627625;87;25854;-78
2022/02/11 12:53:16;;;;;;;14.58;9.10;;;;;;;4.50;91.24;100814.72;1628956;86;25766;-78
2022/02/11 12:55:45;;;;;;;12.33;7.15;;;;;;;4.49;90.83;100815.20;1628484;87;27563;-77
2022/02/11 12:58:14;;;;;;;11.25;7.37;;;;;;;4.45;90.55;100819.13;1626043;86;25751;-77
2022/02/11 13:00:44;;;;;;;9.45;5.85;;;;;;;4.40;90.61;100818.73;1627398;87;25760;-77
2022/02/11 13:03:13;;;;;;;9.75;5.87;;;;;;;4.35;90.58;100816.14;1608892;87;26050;-78
2022/02/11 13:05:50;;;;;;;11.18;6.20;;;;;;;4.32;90.86;100823.06;1616395;88;26481;-77
2022/02/11 13:08:23;;;;;;;12.13;6.00;;;;;;;4.30;91.14;100819.20;1626717;87;28175;-77
2022/02/11 13:11:04;;;;;;;9.65;5.37;;;;;;;4.29;91.15;100821.53;1635427;86;25783;-78
2022/02/11 13:13:32;;;;;;;7.97;5.37;;;;;;;4.30;91.26;100827.16;1617164;88;26006;-78
2022/02/11 13:16:01;;;;;;;9.03;4.95;;;;;;;4.29;91.20;100830.81;1628913;87;25806;-77
2022/02/11 13:18:32;;;;;;;6.97;4.80;;;;;;;4.28;91.00;100833.09;1625529;87;25998;-76
2022/02/11 13:21:09;;;;;;;6.53;4.87;;;;;;;4.23;90.94;100832.70;1617303;87;27621;-78
2022/02/11 13:23:35;;;;;;;8.13;5.00;;;;;;;4.22;91.23;100840.30;1609930;88;25868;-77
2022/02/11 13:26:10;;;;;;;8.65;5.35;;;;;;;4.20;91.08;100844.91;1610378;87;25872;-77
2022/02/11 13:28:45;;;;;;;12.88;6.60;;;;;;;4.16;91.09;100838.69;1616973;87;25783;-77
2022/02/11 13:31:12;;;;;;;15.03;7.33;;;;;;;4.17;91.38;100853.12;1644253;85;25967;-77
2022/02/11 13:33:38;;;;;;;16.77;9.08;;;;;;;4.13;91.23;100849.08;1634036;87;27485;-76
2022/02/11 13:36:11;;;;;;;8.30;5.12;;;;;;;4.10;91.35;100852.02;1634158;87;25899;-77
2022/02/11 13:38:41;;;;;;;6.00;4.30;;;;;;;4.04;91.04;100853.91;1623263;87;26075;-77
2022/02/11 13:41:10;;;;;;;8.05;4.92;;;;;;;3.96;90.71;100859.05;1592871;88;25905;-77
2022/02/11 13:43:55;;;;;;;6.45;4.25;;;;;;;3.89;90.97;100868.55;1613419;87;25846;-78
2022/02/11 13:46:33;;;;;;;8.68;4.58;;;;;;;3.84;91.03;100873.41;1632304;87;27473;-77
2022/02/11 13:49:06;;;;;;;6.95;4.42;;;;;;;3.75;90.99;100881.69;1635819;87;25937;-77
2022/02/11 13:51:33;;;;;;;11.38;5.00;;;;;;;3.63;90.89;100886.75;1593167;89;25982;-77
2022/02/11 13:54:15;;;;;;;8.50;4.42;;;;;;;3.55;91.19;100893.70;1611965;88;26440;-77
2022/02/11 13:56:51;;;;;;;9.00;5.30;;;;;;;3.49;91.41;100891.56;1622045;86;25981;-77
2022/02/11 13:59:27;;;;;;;8.10;4.00;;;;;;;3.42;91.64;100903.17;1622223;85;27998;-76
2022/02/11 14:02:04;;;;;;;7.35;3.70;;;;;;;3.30;91.72;100900.76;1621258;87;26543;-76
2022/02/11 14:04:33;;;;;;;9.80;4.22;;;;;;;3.25;91.97;100910.92;1595587;89;25832;-77
2022/02/11 14:07:01;;;;;;;7.40;4.33;;;;;;;3.20;92.28;100909.15;1595117;89;26532;-77
2022/02/11 14:09:41;;;;;;;10.70;4.95;;;;;;;3.24;92.60;100915.85;1606471;89;25789;-77
2022/02/11 14:12:16;;;;;;;11.63;6.25;;;;;;;3.20;92.46;100908.67;1633062;87;27474;-77
2022/02/11 14:14:56;;;;;;;21.52;10.53;;;;;;;3.19;92.42;100902.20;1619531;88;25828;-77
2022/02/11 14:17:24;;;;;;;15.00;6.40;;;;;;;3.22;92.48;100909.38;1597558;88;26010;-77
2022/02/11 14:19:50;;;;;;;10.45;5.40;;;;;;;3.23;92.57;100914.19;1621352;88;26249;-77
2022/02/11 14:22:17;;;;;;;11.18;4.95;;;;;;;3.26;92.46;100923.17;1621237;88;25344;-77
2022/02/11 14:24:44;;;;;;;7.28;4.75;;;;;;;3.21;92.23;100919.59;1620988;88;28818;-77
2022/02/11 14:27:11;;;;;;;8.33;4.62;;;;;;;3.24;92.42;100919.83;1610230;88;25829;-77
2022/02/11 14:29:37;;;;;;;13.90;6.05;;;;;;;3.22;92.18;100927.91;1595278;88;25810;-77
2022/02/11 14:32:05;;;;;;;7.58;4.22;;;;;;;3.21;92.17;100922.75;1594949;89;26024;-77
2022/02/11 14:34:31;;;;;;;13.50;5.55;;;;;;;3.20;91.84;100931.65;1584075;89;26579;-77
2022/02/11 14:36:58;;;;;;;10.88;4.70;;;;;;;3.14;91.66;100933.84;1593795;88;27500;-77
2022/02/11 14:39:26;;;;;;;10.53;5.33;;;;;;;3.09;91.24;100937.86;1614939;88;25896;-77
2022/02/11 14:41:55;;;;;;;11.28;5.85;;;;;;;3.00;91.10;100935.52;1625780;88;26102;-77
2022/02/11 14:44:27;;;;;;;9.60;5.00;;;;;;;2.97;91.21;100942.88;1613277;83;25967;-77
2022/02/11 14:46:56;;;;;;;16.12;8.63;;;;;;;2.93;91.04;100941.47;1603753;89;26043;-77
2022/02/11 14:49:23;;;;;;;64.87;25.80;;;;;;;2.92;91.43;100943.27;1615676;87;28419;-77
2022/02/11 14:52:00;;;;;;;38.70;17.87;;;;;;;2.94;91.53;100947.94;1603349;87;25818;-77
2022/02/11 14:54:28;;;;;;;13.58;7.60;;;;;;;2.96;91.71;100951.30;1637509;87;25785;-77
2022/02/11 14:56:55;;;;;;;23.42;16.27;;;;;;;2.96;91.73;100949.97;1639929;84;25942;-77
2022/02/11 14:59:23;;;;;;;21.65;15.08;;;;;;;2.97;91.68;100956.11;1629094;86;25376;-77
2022/02/11 15:01:51;;;;;;;24.50;13.62;;;;;;;2.97;91.69;100955.60;1642717;86;27449;-77
2022/02/11 15:04:18;;;;;;;26.82;15.75;;;;;;;2.97;91.79;100960.08;1625323;87;25811;-77
2022/02/11 15:06:47;;;;;;;21.20;11.60;;;;;;;2.96;92.02;100968.50;1625956;87;25741;-77